Terminal Aerodrome Forecast
Issued by NWS Atlanta, GA

Home | Current Version | Previous Version | Text Only | Print | Product List | Glossary On
Versions: 1 2 3 4 5 6 7 8 9 10 11 12 13 14 15 16 17 18 19 20 21 22 23 24 25 26 27 28 29 30 31 32 33 34 35 36 37 38
000
FTUS42 KFFC 291723
TAFATL
TAF
KATL 291723Z 2918/3024 20010G17KT P6SM BKN200
     FM292100 20010KT P6SM BKN090
     FM300000 21009KT P6SM SCT025 BKN080
     FM300200 23006KT P6SM BKN025 OVC080 PROB30 3003/3006 -RA BKN012
     FM300900 32012G20KT P6SM OVC040
     FM301400 33014G24KT P6SM SCT045=

USA.gov is the U.S. government's official web portal to all federal, state and local government web resources and services.